• Join FlightAware (Why Join?)
  • Login
  • US Flag 
04:05AM EDT


 

Airport Tracker/Info


-or-


 

Live Flight TrackerFlight Track Log ✈ CTA400 ✈ 12-Jun-2013 ✈ KADS - KLBB

Flight Track Log - Related Links

Times and Time Zones

All times are in EDT time to prevent confusion due to time zone crossing. See the CTA400 flight status page for this flight to view local times or setup timezone preferences in your user account.

Time Position Orientation Groundspeed Altitude Reporting Facility
EDT Latitude Longitude Course Direction KTS MPH feet Rate Location/Type
08:17AM 32.9667 -96.8333 157° South 119 137 1,200  Level Dallas / Fort Worth TRACON
08:18AM 32.9333 -96.8167 157° South 135 155 2,100 720 Climbing Dallas / Fort Worth TRACON
08:19AM 32.8833 -96.8000 164° South 130 150 2,800 900 Climbing Dallas / Fort Worth TRACON
08:20AM 32.8833 -96.8333 270° West 141 162 3,900 600 Climbing Dallas / Fort Worth TRACON
08:21AM 32.9000 -96.8833 292° West 161 185 4,100  Climbing Dallas / Fort Worth TRACON
08:22AM 32.9000 -96.9500 270° West 181 208 4,000 -60 Descending Dallas / Fort Worth TRACON
08:23AM 32.9167 -97.0000 292° West 179 206 4,000  Level Dallas / Fort Worth TRACON
08:24AM 32.9167 -97.0667 270° West 177 204 4,100  Climbing Dallas / Fort Worth TRACON
08:25AM 32.9333 -97.1167 292° West 178 205 4,000 -60 Descending Dallas / Fort Worth TRACON
08:26AM 32.9333 -97.1833 270° West 182 209 4,000  Level Dallas / Fort Worth TRACON
08:27AM 32.9500 -97.2333 292° West 180 207 4,000 120 Level Dallas / Fort Worth TRACON
08:28AM 32.9667 -97.3000 287° West 172 198 4,300 240 Climbing Dallas / Fort Worth TRACON
08:29AM 32.9667 -97.3500 270° West 169 194 4,500 120 Climbing Dallas / Fort Worth TRACON
08:30AM 32.9833 -97.4000 292° West 174 200 4,600 360 Climbing Dallas / Fort Worth TRACON
08:31AM 33.0000 -97.4500 292° West 159 183 5,300 720 Climbing Dallas / Fort Worth TRACON
08:32AM 33.0025 -97.5000 273° West 162 186 5,900 840 Climbing Fort Worth Center
08:33AM 33.0150 -97.5447 288° West 157 181 6,900 960 Climbing Fort Worth Center
08:34AM 33.0294 -97.5894 291° West 152 175 7,900 900 Climbing Fort Worth Center
08:35AM 33.0397 -97.6314 286° West 147 169 8,800 900 Climbing Fort Worth Center
08:36AM 33.0503 -97.6786 285° West 147 169 9,700 720 Climbing Fort Worth Center
08:37AM 33.0606 -97.7233 285° West 147 169 10,300 360 Climbing Fort Worth Center
08:38AM 33.0708 -97.7753 283° West 147 169 10,500 180 Climbing Fort Worth Center
08:39AM 33.0831 -97.8300 285° West 165 190 10,700 60 Climbing Fort Worth Center
08:40AM 33.0914 -97.8919 279° West 183 211 10,700 -60 Level Fort Worth Center
08:41AM 33.0953 -97.9539 274° West 188 216 10,600 -120 Descending Fort Worth Center
08:42AM 33.1033 -98.0161 279° West 193 222 10,500 -60 Descending Fort Worth Center
08:43AM 33.1114 -98.0731 280° West 199 229 10,500  Level Fort Worth Center
08:44AM 33.1192 -98.1403 278° West 199 229 10,500  Level Fort Worth Center
08:45AM 33.1272 -98.1997 279° West 199 229 10,500  Level Fort Worth Center
08:46AM 33.1394 -98.2619 283° West 199 229 10,600  Climbing Fort Worth Center
08:47AM 33.1578 -98.3217 290° West 193 222 10,500 -60 Descending Fort Worth Center
08:48AM 33.1742 -98.3789 289° West 188 216 10,500  Level Fort Worth Center
08:49AM 33.1881 -98.4411 285° West 188 216 10,500  Level Fort Worth Center
08:50AM 33.1939 -98.4983 277° West 182 209 10,600  Climbing Fort Worth Center
08:51AM 33.2017 -98.5556 279° West 187 215 10,600 -60 Level Fort Worth Center
08:52AM 33.2117 -98.6178 281° West 187 215 10,500 -60 Descending Fort Worth Center
08:53AM 33.2194 -98.6772 279° West 187 215 10,500 -60 Level Fort Worth Center
08:54AM 33.2292 -98.7372 281° West 187 215 10,400  Descending Fort Worth Center
08:55AM 33.2411 -98.8019 282° West 187 215 10,500 60 Climbing Fort Worth Center
08:56AM 33.2486 -98.8617 279° West 187 215 10,600  Climbing Fort Worth Center
08:57AM 33.2583 -98.9289 280° West 187 215 10,500  Descending Fort Worth Center
08:58AM 33.2681 -98.9886 281° West 181 208 10,600  Climbing Fort Worth Center
08:59AM 33.2797 -99.0461 284° West 181 208 10,500 -60 Descending Fort Worth Center
09:00AM 33.2936 -99.1108 284° West 186 214 10,500 -240 Level Fort Worth Center
09:01AM 33.3011 -99.1756 278° West 191 220 10,100 -420 Descending Fort Worth Center
09:02AM 33.3106 -99.2431 280° West 198 228 9,700 -480 Descending Fort Worth Center
09:03AM 33.3219 -99.3078 282° West 203 234 9,200 -420 Descending Fort Worth Center
09:04AM 33.3336 -99.3728 282° West 203 234 8,900 -300 Descending Fort Worth Center
09:05AM 33.3472 -99.4400 284° West 203 234 8,600 -240 Descending Fort Worth Center
09:06AM 33.3669 -99.5028 291° West 203 234 8,500 -60 Descending Fort Worth Center
09:07AM 33.3828 -99.5603 288° West 203 234 8,500  Level Fort Worth Center
09:08AM 33.3983 -99.6228 287° West 203 234 8,600  Climbing Fort Worth Center
09:09AM 33.4117 -99.6856 284° West 203 234 8,600  Level Fort Worth Center
09:10AM 33.4275 -99.7456 288° West 203 234 8,600  Level Fort Worth Center
09:11AM 33.4428 -99.8108 286° West 203 234 8,600 -60 Level Fort Worth Center
09:12AM 33.4542 -99.8733 282° West 203 234 8,500 -60 Descending Fort Worth Center
09:13AM 33.4675 -99.9333 285° West 203 234 8,500  Level Fort Worth Center
09:14AM 33.4808 -99.9936 285° West 197 227 8,500  Level Fort Worth Center
09:15AM 33.4942 -100.0561 284° West 197 227 8,500  Level Fort Worth Center
09:16AM 33.5056 -100.1189 282° West 197 227 8,500  Level Fort Worth Center
09:17AM 33.5186 -100.1792 285° West 197 227 8,500  Level Fort Worth Center
09:18AM 33.5342 -100.2394 287° West 197 227 8,500  Level Fort Worth Center
09:19AM 33.5492 -100.3047 285° West 197 227 8,600  Climbing Fort Worth Center
09:20AM 33.5625 -100.3625 285° West 197 227 8,600 -60 Level Fort Worth Center
09:21AM 33.5800 -100.4228 289° West 197 227 8,500 -60 Descending Fort Worth Center
09:22AM 33.5928 -100.4931 282° West 197 227 8,500 -60 Level Fort Worth Center
09:23AM 33.6039 -100.5558 282° West 197 227 8,400  Descending Fort Worth Center
09:24AM 33.6147 -100.6136 283° West 190 219 8,500 60 Climbing Fort Worth Center
09:25AM 33.6300 -100.6764 286° West 190 219 8,600  Climbing Fort Worth Center
09:26AM 33.6406 -100.7442 281° West 196 226 8,600  Level Fort Worth Center
09:27AM 33.6558 -100.8047 287° West 203 234 8,600  Level Fort Worth Center
09:27AM 33.6533 -100.8194 258° West 190 219 8,600  Level Fort Worth Center
09:28AM 33.6644 -100.8700 285° West 203 234 8,600  Level Fort Worth Center
09:28AM 33.6636 -100.8922 267° West 198 228 8,600  Level Fort Worth Center
09:29AM 33.6647 -100.9347 272° West 197 227 8,600 -120 Level Fort Worth Center
09:29AM 33.6658 -100.9672 272° West 196 226 8,500 -120 Descending Fort Worth Center
09:30AM 33.6692 -101.0000 277° West 197 227 8,500  Level Fort Worth Center
09:30AM 33.6639 -101.0297 258° West 193 222 8,500  Level Fort Worth Center
09:31AM 33.6672 -101.0647 277° West 197 227 8,500  Level Fort Worth Center
09:31AM 33.6625 -101.0844 254° West 193 222 8,500  Level Fort Worth Center
09:32AM 33.6653 -101.1294 274° West 197 227 8,500  Level Fort Worth Center
09:33AM 33.6656 -101.1919 270° West 197 227 8,500  Level Fort Worth Center
09:34AM 33.6656 -101.2567 270° West 197 227 8,500  Level Fort Worth Center
09:34AM 33.6628 -101.2842 263° West 192 221 8,500  Level Fort Worth Center
09:35AM 33.6636 -101.3192 272° West 192 221 8,500  Level Fort Worth Center
09:35AM 33.6603 -101.3589 264° West 192 221 8,500  Level Fort Worth Center
09:36AM 33.6617 -101.3814 274° West 198 228 8,500 -120 Level Fort Worth Center
09:36AM 33.6608 -101.4114 268° West 191 220 8,400 -540 Descending Fort Worth Center
09:37AM 33.6636 -101.4489 275° West 198 228 8,000 -660 Descending Fort Worth Center
09:37AM 33.6625 -101.4886 268° West 198 228 7,700 -600 Descending Fort Worth Center
09:38AM 33.6658 -101.5114 280° West 198 228 7,400 -780 Descending Fort Worth Center
09:38AM 33.6628 -101.5461 264° West 188 216 7,000 -840 Descending Fort Worth Center
09:39AM 33.6639 -101.5711 273° West 188 216 6,600 -780 Descending Fort Worth Center
09:39AM 33.6611 -101.5933 261° West 171 197 6,300 -720 Descending Fort Worth Center
09:40AM 33.6619 -101.6258 272° West 177 204 5,900 -780 Descending Fort Worth Center
09:40AM 33.6611 -101.6583 268° West 163 188 5,500 -780 Descending Fort Worth Center
09:41AM 33.6614 -101.7083 270° West 147 169 4,800 -720 Descending Fort Worth Center
09:42AM 33.6619 -101.7481 271° West 125 144 4,100 -660 Descending Fort Worth Center
09:43AM 33.6606 -101.7906 268° West 119 137 3,500 -600 Descending Fort Worth Center
09:45AM 33.6500 -101.8167 273° West  Level FlightAware Approximate
09:52AM 33.6637 -101.8206 273° West  Level Estimated
09:53AM 33.6637 -101.8206 273° West  Level Estimated